sensor_id;sensor_type;location;lat;lon;timestamp;pressure;altitude;pressure_sealevel;temperature;humidity
20077;BME280;12348;42.710;23.378;2023-07-13T00:01:51;95369.81;;;21.51;100.00
20077;BME280;12348;42.710;23.378;2023-07-13T00:04:18;95369.53;;;21.57;100.00
20077;BME280;12348;42.710;23.378;2023-07-13T00:06:46;95373.69;;;21.66;100.00
20077;BME280;12348;42.710;23.378;2023-07-13T00:09:13;95368.13;;;21.63;100.00
20077;BME280;12348;42.710;23.378;2023-07-13T00:11:41;95374.22;;;21.56;100.00
20077;BME280;12348;42.710;23.378;2023-07-13T00:14:08;95368.91;;;21.47;100.00
20077;BME280;12348;42.710;23.378;2023-07-13T00:16:39;95366.78;;;21.41;100.00
20077;BME280;12348;42.710;23.378;2023-07-13T00:19:09;95360.75;;;21.35;100.00
20077;BME280;12348;42.710;23.378;2023-07-13T00:21:36;95359.34;;;21.25;100.00
20077;BME280;12348;42.710;23.378;2023-07-13T00:24:05;95353.13;;;21.13;100.00
20077;BME280;12348;42.710;23.378;2023-07-13T00:26:34;95355.47;;;20.98;100.00
20077;BME280;12348;42.710;23.378;2023-07-13T00:29:00;95355.31;;;20.91;100.00
20077;BME280;12348;42.710;23.378;2023-07-13T00:31:27;95341.66;;;20.79;100.00
20077;BME280;12348;42.710;23.378;2023-07-13T00:33:55;95340.34;;;20.73;100.00
20077;BME280;12348;42.710;23.378;2023-07-13T00:36:22;95340.84;;;20.63;100.00
20077;BME280;12348;42.710;23.378;2023-07-13T00:38:49;95341.25;;;20.65;100.00
20077;BME280;12348;42.710;23.378;2023-07-13T00:41:15;95340.28;;;20.57;100.00
20077;BME280;12348;42.710;23.378;2023-07-13T00:43:42;95341.31;;;20.52;100.00
20077;BME280;12348;42.710;23.378;2023-07-13T00:46:22;95348.84;;;20.43;100.00
20077;BME280;12348;42.710;23.378;2023-07-13T00:48:50;95351.97;;;20.29;100.00
20077;BME280;12348;42.710;23.378;2023-07-13T00:51:23;95344.66;;;20.33;100.00
20077;BME280;12348;42.710;23.378;2023-07-13T00:53:53;95337.13;;;20.30;100.00
20077;BME280;12348;42.710;23.378;2023-07-13T00:56:21;95333.63;;;20.30;100.00
20077;BME280;12348;42.710;23.378;2023-07-13T00:58:48;95334.28;;;20.39;100.00
20077;BME280;12348;42.710;23.378;2023-07-13T01:01:15;95332.66;;;20.38;100.00
20077;BME280;12348;42.710;23.378;2023-07-13T01:03:42;95336.31;;;20.54;100.00
20077;BME280;12348;42.710;23.378;2023-07-13T01:06:10;95338.34;;;20.45;100.00
20077;BME280;12348;42.710;23.378;2023-07-13T01:08:37;95338.34;;;20.45;100.00
20077;BME280;12348;42.710;23.378;2023-07-13T01:11:05;95339.03;;;20.42;100.00
20077;BME280;12348;42.710;23.378;2023-07-13T01:13:33;95342.72;;;20.34;100.00
20077;BME280;12348;42.710;23.378;2023-07-13T01:16:03;95338.59;;;20.40;100.00
20077;BME280;12348;42.710;23.378;2023-07-13T01:18:33;95339.50;;;20.44;100.00
20077;BME280;12348;42.710;23.378;2023-07-13T01:21:03;95342.94;;;20.41;100.00
20077;BME280;12348;42.710;23.378;2023-07-13T01:23:31;95333.19;;;20.28;100.00
20077;BME280;12348;42.710;23.378;2023-07-13T01:25:58;95329.72;;;20.31;100.00
20077;BME280;12348;42.710;23.378;2023-07-13T01:28:26;95331.56;;;20.27;100.00
20077;BME280;12348;42.710;23.378;2023-07-13T01:30:55;95341.19;;;20.21;100.00
20077;BME280;12348;42.710;23.378;2023-07-13T01:33:22;95331.50;;;20.11;100.00
20077;BME280;12348;42.710;23.378;2023-07-13T01:35:49;95334.03;;;20.04;100.00
20077;BME280;12348;42.710;23.378;2023-07-13T01:38:20;95339.84;;;20.02;100.00
20077;BME280;12348;42.710;23.378;2023-07-13T01:40:48;95342.69;;;19.94;100.00
20077;BME280;12348;42.710;23.378;2023-07-13T01:43:14;95341.66;;;19.86;100.00
20077;BME280;12348;42.710;23.378;2023-07-13T01:45:41;95341.00;;;19.77;100.00
20077;BME280;12348;42.710;23.378;2023-07-13T01:48:09;95341.81;;;19.65;100.00
20077;BME280;12348;42.710;23.378;2023-07-13T01:50:36;95338.91;;;19.49;100.00
20077;BME280;12348;42.710;23.378;2023-07-13T01:53:03;95332.56;;;19.45;100.00
20077;BME280;12348;42.710;23.378;2023-07-13T01:55:31;95331.16;;;19.27;100.00
20077;BME280;12348;42.710;23.378;2023-07-13T01:57:58;95330.50;;;19.30;100.00
20077;BME280;12348;42.710;23.378;2023-07-13T02:00:25;95335.28;;;19.21;100.00
20077;BME280;12348;42.710;23.378;2023-07-13T02:02:52;95344.63;;;19.32;100.00
20077;BME280;12348;42.710;23.378;2023-07-13T02:05:19;95337.78;;;19.38;100.00
20077;BME280;12348;42.710;23.378;2023-07-13T02:07:46;95345.88;;;19.34;100.00
20077;BME280;12348;42.710;23.378;2023-07-13T02:10:13;95345.28;;;19.41;100.00
20077;BME280;12348;42.710;23.378;2023-07-13T02:12:42;95338.00;;;19.45;100.00
20077;BME280;12348;42.710;23.378;2023-07-13T02:15:10;95337.47;;;19.40;100.00
20077;BME280;12348;42.710;23.378;2023-07-13T02:17:36;95339.41;;;19.39;100.00
20077;BME280;12348;42.710;23.378;2023-07-13T02:20:05;95349.75;;;19.46;100.00
20077;BME280;12348;42.710;23.378;2023-07-13T02:22:32;95340.53;;;19.50;100.00
20077;BME280;12348;42.710;23.378;2023-07-13T02:24:59;95346.13;;;19.54;100.00
20077;BME280;12348;42.710;23.378;2023-07-13T02:27:26;95355.31;;;19.49;100.00
20077;BME280;12348;42.710;23.378;2023-07-13T02:29:54;95350.31;;;19.39;100.00
20077;BME280;12348;42.710;23.378;2023-07-13T02:32:21;95357.59;;;19.35;100.00
20077;BME280;12348;42.710;23.378;2023-07-13T02:34:50;95352.13;;;19.35;100.00
20077;BME280;12348;42.710;23.378;2023-07-13T02:37:17;95360.09;;;19.28;100.00
20077;BME280;12348;42.710;23.378;2023-07-13T02:39:44;95358.94;;;19.29;100.00
20077;BME280;12348;42.710;23.378;2023-07-13T02:42:10;95358.41;;;19.35;100.00
20077;BME280;12348;42.710;23.378;2023-07-13T02:44:37;95357.00;;;19.29;100.00
20077;BME280;12348;42.710;23.378;2023-07-13T02:47:05;95349.06;;;19.24;100.00
20077;BME280;12348;42.710;23.378;2023-07-13T02:49:32;95361.44;;;19.22;100.00
20077;BME280;12348;42.710;23.378;2023-07-13T02:51:59;95361.44;;;19.22;100.00
20077;BME280;12348;42.710;23.378;2023-07-13T02:54:26;95361.66;;;19.17;100.00
20077;BME280;12348;42.710;23.378;2023-07-13T02:56:53;95358.38;;;19.23;100.00
20077;BME280;12348;42.710;23.378;2023-07-13T02:59:19;95362.03;;;19.27;100.00
20077;BME280;12348;42.710;23.378;2023-07-13T03:01:46;95361.44;;;19.34;100.00
20077;BME280;12348;42.710;23.378;2023-07-13T03:04:14;95354.75;;;19.31;100.00
20077;BME280;12348;42.710;23.378;2023-07-13T03:06:45;95365.56;;;19.40;100.00
20077;BME280;12348;42.710;23.378;2023-07-13T03:09:12;95373.41;;;19.42;100.00
20077;BME280;12348;42.710;23.378;2023-07-13T03:11:39;95370.22;;;19.40;100.00
20077;BME280;12348;42.710;23.378;2023-07-13T03:14:06;95374.91;;;19.39;100.00
20077;BME280;12348;42.710;23.378;2023-07-13T03:16:33;95375.56;;;19.36;100.00
20077;BME280;12348;42.710;23.378;2023-07-13T03:19:00;95364.88;;;19.43;100.00
20077;BME280;12348;42.710;23.378;2023-07-13T03:21:28;95364.44;;;19.53;100.00
20077;BME280;12348;42.710;23.378;2023-07-13T03:23:55;95376.53;;;19.65;100.00
20077;BME280;12348;42.710;23.378;2023-07-13T03:26:22;95369.25;;;19.69;100.00
20077;BME280;12348;42.710;23.378;2023-07-13T03:28:48;95377.69;;;19.76;100.00
20077;BME280;12348;42.710;23.378;2023-07-13T03:31:17;95379.94;;;19.86;100.00
20077;BME280;12348;42.710;23.378;2023-07-13T03:33:45;95377.88;;;20.07;100.00
20077;BME280;12348;42.710;23.378;2023-07-13T03:36:14;95383.34;;;20.07;100.00
20077;BME280;12348;42.710;23.378;2023-07-13T03:38:46;95369.56;;;20.56;100.00
20077;BME280;12348;42.710;23.378;2023-07-13T03:41:14;95367.44;;;21.22;100.00
20077;BME280;12348;42.710;23.378;2023-07-13T03:43:41;95371.47;;;21.72;100.00
20077;BME280;12348;42.710;23.378;2023-07-13T03:46:08;95367.75;;;22.31;100.00
20077;BME280;12348;42.710;23.378;2023-07-13T03:48:35;95365.94;;;22.93;100.00
20077;BME280;12348;42.710;23.378;2023-07-13T03:51:01;95377.19;;;23.73;100.00
20077;BME280;12348;42.710;23.378;2023-07-13T03:53:29;95371.81;;;24.07;100.00
20077;BME280;12348;42.710;23.378;2023-07-13T03:55:57;95374.44;;;24.83;100.00
20077;BME280;12348;42.710;23.378;2023-07-13T03:58:27;95366.56;;;25.15;100.00
20077;BME280;12348;42.710;23.378;2023-07-13T04:00:54;95372.44;;;25.51;100.00
20077;BME280;12348;42.710;23.378;2023-07-13T04:03:21;95376.50;;;26.12;99.31
20077;BME280;12348;42.710;23.378;2023-07-13T04:05:48;95386.56;;;26.42;98.51
20077;BME280;12348;42.710;23.378;2023-07-13T04:08:15;95379.00;;;27.08;90.42
20077;BME280;12348;42.710;23.378;2023-07-13T04:10:42;95378.19;;;26.97;91.06
20077;BME280;12348;42.710;23.378;2023-07-13T04:13:11;95383.56;;;27.88;86.93
20077;BME280;12348;42.710;23.378;2023-07-13T04:15:38;95379.94;;;27.62;85.38
20077;BME280;12348;42.710;23.378;2023-07-13T04:18:05;95381.41;;;28.92;80.08
20077;BME280;12348;42.710;23.378;2023-07-13T04:20:32;95388.66;;;29.52;75.99
20077;BME280;12348;42.710;23.378;2023-07-13T04:22:59;95388.16;;;28.87;79.31
20077;BME280;12348;42.710;23.378;2023-07-13T04:25:26;95395.13;;;29.28;76.39
20077;BME280;12348;42.710;23.378;2023-07-13T04:27:52;95391.03;;;29.50;76.12
20077;BME280;12348;42.710;23.378;2023-07-13T04:30:22;95393.81;;;30.92;71.69
20077;BME280;12348;42.710;23.378;2023-07-13T04:32:52;95397.00;;;31.55;68.34
20077;BME280;12348;42.710;23.378;2023-07-13T04:35:19;95400.16;;;32.11;65.13
20077;BME280;12348;42.710;23.378;2023-07-13T04:37:47;95404.38;;;32.23;65.25
20077;BME280;12348;42.710;23.378;2023-07-13T04:40:15;95397.63;;;31.97;65.38
20077;BME280;12348;42.710;23.378;2023-07-13T04:42:43;95398.69;;;32.30;64.62
20077;BME280;12348;42.710;23.378;2023-07-13T04:45:10;95408.09;;;32.60;62.07
20077;BME280;12348;42.710;23.378;2023-07-13T04:47:38;95405.06;;;32.98;63.10
20077;BME280;12348;42.710;23.378;2023-07-13T04:50:06;95407.25;;;33.83;59.19
20077;BME280;12348;42.710;23.378;2023-07-13T04:52:33;95412.09;;;33.42;61.22
20077;BME280;12348;42.710;23.378;2023-07-13T04:55:00;95413.19;;;33.48;60.21
20077;BME280;12348;42.710;23.378;2023-07-13T04:57:27;95414.50;;;33.80;59.30
20077;BME280;12348;42.710;23.378;2023-07-13T04:59:54;95417.00;;;34.27;58.04
20077;BME280;12348;42.710;23.378;2023-07-13T05:02:21;95415.47;;;33.53;60.15
20077;BME280;12348;42.710;23.378;2023-07-13T05:04:49;95414.91;;;34.93;56.39
20077;BME280;12348;42.710;23.378;2023-07-13T05:07:16;95420.09;;;35.36;55.20
20077;BME280;12348;42.710;23.378;2023-07-13T05:09:43;95419.41;;;35.74;53.39
20077;BME280;12348;42.710;23.378;2023-07-13T05:12:10;95416.53;;;35.07;56.04
20077;BME280;12348;42.710;23.378;2023-07-13T05:14:37;95426.91;;;35.52;52.94
20077;BME280;12348;42.710;23.378;2023-07-13T05:17:04;95424.09;;;34.93;53.97
20077;BME280;12348;42.710;23.378;2023-07-13T05:19:31;95428.16;;;35.63;52.06
20077;BME280;12348;42.710;23.378;2023-07-13T05:22:01;95428.66;;;33.89;57.00
20077;BME280;12348;42.710;23.378;2023-07-13T05:24:29;95415.63;;;34.52;55.79
20077;BME280;12348;42.710;23.378;2023-07-13T05:26:56;95416.41;;;32.87;59.21
20077;BME280;12348;42.710;23.378;2023-07-13T05:29:22;95416.56;;;34.90;53.07
20077;BME280;12348;42.710;23.378;2023-07-13T05:31:49;95422.53;;;33.94;56.41
20077;BME280;12348;42.710;23.378;2023-07-13T05:34:16;95420.56;;;34.28;54.74
20077;BME280;12348;42.710;23.378;2023-07-13T05:36:43;95425.47;;;32.91;59.76
20077;BME280;12348;42.710;23.378;2023-07-13T05:39:11;95425.41;;;33.35;58.52
20077;BME280;12348;42.710;23.378;2023-07-13T05:41:38;95431.94;;;34.37;55.87
20077;BME280;12348;42.710;23.378;2023-07-13T05:44:05;95431.94;;;34.53;55.32
20077;BME280;12348;42.710;23.378;2023-07-13T05:46:31;95434.63;;;34.24;55.66
20077;BME280;12348;42.710;23.378;2023-07-13T05:48:59;95424.03;;;35.39;52.29
20077;BME280;12348;42.710;23.378;2023-07-13T05:51:25;95418.34;;;35.13;53.42
20077;BME280;12348;42.710;23.378;2023-07-13T05:53:52;95428.72;;;35.71;51.63
20077;BME280;12348;42.710;23.378;2023-07-13T05:56:21;95433.63;;;36.69;48.87
20077;BME280;12348;42.710;23.378;2023-07-13T05:58:49;95419.81;;;37.53;47.15
20077;BME280;12348;42.710;23.378;2023-07-13T06:01:16;95424.34;;;37.38;46.27
20077;BME280;12348;42.710;23.378;2023-07-13T06:03:45;95418.03;;;37.03;46.93
20077;BME280;12348;42.710;23.378;2023-07-13T06:06:13;95416.34;;;36.58;48.40
20077;BME280;12348;42.710;23.378;2023-07-13T06:08:39;95422.47;;;37.57;45.02
20077;BME280;12348;42.710;23.378;2023-07-13T06:11:08;95424.63;;;38.06;43.36
20077;BME280;12348;42.710;23.378;2023-07-13T06:13:38;95417.31;;;39.22;40.97
20077;BME280;12348;42.710;23.378;2023-07-13T06:16:06;95427.47;;;39.47;40.51
20077;BME280;12348;42.710;23.378;2023-07-13T06:18:35;95421.41;;;39.03;41.03
20077;BME280;12348;42.710;23.378;2023-07-13T06:21:06;95423.69;;;39.78;40.77
20077;BME280;12348;42.710;23.378;2023-07-13T06:23:33;95425.56;;;40.81;38.34
20077;BME280;12348;42.710;23.378;2023-07-13T06:26:00;95432.34;;;40.74;37.47
20077;BME280;12348;42.710;23.378;2023-07-13T06:28:26;95430.56;;;40.29;37.76
20077;BME280;12348;42.710;23.378;2023-07-13T06:30:55;95431.31;;;38.49;41.48
20077;BME280;12348;42.710;23.378;2023-07-13T06:33:21;95418.69;;;39.64;39.84
20077;BME280;12348;42.710;23.378;2023-07-13T06:35:48;95417.19;;;40.38;39.35
20077;BME280;12348;42.710;23.378;2023-07-13T06:38:15;95425.13;;;40.49;38.16
20077;BME280;12348;42.710;23.378;2023-07-13T06:40:41;95425.56;;;41.88;34.30
20077;BME280;12348;42.710;23.378;2023-07-13T06:43:08;95419.16;;;42.37;31.89
20077;BME280;12348;42.710;23.378;2023-07-13T06:45:40;95422.31;;;42.10;31.43
20077;BME280;12348;42.710;23.378;2023-07-13T06:48:08;95423.31;;;42.07;30.75
20077;BME280;12348;42.710;23.378;2023-07-13T06:50:35;95412.16;;;41.29;31.78
20077;BME280;12348;42.710;23.378;2023-07-13T06:53:02;95413.34;;;40.17;33.97
20077;BME280;12348;42.710;23.378;2023-07-13T06:55:29;95418.72;;;41.50;33.58
20077;BME280;12348;42.710;23.378;2023-07-13T06:57:55;95402.72;;;40.93;35.51
20077;BME280;12348;42.710;23.378;2023-07-13T07:00:22;95412.16;;;40.66;35.25
20077;BME280;12348;42.710;23.378;2023-07-13T07:02:49;95419.69;;;42.06;32.66
20077;BME280;12348;42.710;23.378;2023-07-13T07:05:17;95417.97;;;42.65;32.79
20077;BME280;12348;42.710;23.378;2023-07-13T07:07:47;95414.81;;;39.15;37.01
20077;BME280;12348;42.710;23.378;2023-07-13T07:10:14;95408.63;;;40.23;36.67
20077;BME280;12348;42.710;23.378;2023-07-13T07:12:41;95406.69;;;42.14;33.75
20077;BME280;12348;42.710;23.378;2023-07-13T07:15:08;95405.94;;;42.49;33.55
20077;BME280;12348;42.710;23.378;2023-07-13T07:17:35;95406.19;;;43.07;32.22
20077;BME280;12348;42.710;23.378;2023-07-13T07:20:02;95404.69;;;42.71;32.15
20077;BME280;12348;42.710;23.378;2023-07-13T07:22:31;95408.22;;;42.86;31.27
20077;BME280;12348;42.710;23.378;2023-07-13T07:24:58;95409.44;;;43.72;29.98
20077;BME280;12348;42.710;23.378;2023-07-13T07:27:25;95406.50;;;44.62;28.39
20077;BME280;12348;42.710;23.378;2023-07-13T07:29:52;95406.66;;;45.50;27.63
20077;BME280;12348;42.710;23.378;2023-07-13T07:32:20;95387.50;;;41.59;31.42
20077;BME280;12348;42.710;23.378;2023-07-13T07:34:47;95403.41;;;40.55;32.71
20077;BME280;12348;42.710;23.378;2023-07-13T07:37:14;95401.13;;;42.55;30.78
20077;BME280;12348;42.710;23.378;2023-07-13T07:39:42;95383.41;;;41.90;31.14
20077;BME280;12348;42.710;23.378;2023-07-13T07:42:09;95376.78;;;39.01;37.53
20077;BME280;12348;42.710;23.378;2023-07-13T07:44:36;95382.78;;;39.83;35.51
20077;BME280;12348;42.710;23.378;2023-07-13T07:47:03;95378.94;;;39.43;36.08
20077;BME280;12348;42.710;23.378;2023-07-13T07:49:30;95376.28;;;39.91;34.93
20077;BME280;12348;42.710;23.378;2023-07-13T07:51:56;95378.97;;;40.28;35.11
20077;BME280;12348;42.710;23.378;2023-07-13T07:54:23;95375.25;;;39.80;35.19
20077;BME280;12348;42.710;23.378;2023-07-13T07:56:51;95374.66;;;37.04;41.05
20077;BME280;12348;42.710;23.378;2023-07-13T07:59:19;95372.28;;;37.77;40.11
20077;BME280;12348;42.710;23.378;2023-07-13T08:01:45;95373.34;;;38.97;37.82
20077;BME280;12348;42.710;23.378;2023-07-13T08:04:13;95362.31;;;41.02;34.36
20077;BME280;12348;42.710;23.378;2023-07-13T08:06:40;95365.94;;;41.77;32.82
20077;BME280;12348;42.710;23.378;2023-07-13T08:09:06;95356.53;;;39.91;34.07
20077;BME280;12348;42.710;23.378;2023-07-13T08:11:34;95347.75;;;40.56;34.82
20077;BME280;12348;42.710;23.378;2023-07-13T08:14:02;95353.81;;;40.15;35.02
20077;BME280;12348;42.710;23.378;2023-07-13T08:16:29;95351.28;;;39.14;37.00
20077;BME280;12348;42.710;23.378;2023-07-13T08:18:58;95348.59;;;38.65;36.96
20077;BME280;12348;42.710;23.378;2023-07-13T08:21:25;95357.56;;;39.00;37.05
20077;BME280;12348;42.710;23.378;2023-07-13T08:23:52;95357.38;;;39.31;36.48
20077;BME280;12348;42.710;23.378;2023-07-13T08:26:19;95350.25;;;40.54;34.30
20077;BME280;12348;42.710;23.378;2023-07-13T08:28:45;95343.31;;;41.77;32.55
20077;BME280;12348;42.710;23.378;2023-07-13T08:31:14;95344.78;;;41.87;32.25
20077;BME280;12348;42.710;23.378;2023-07-13T08:33:41;95341.88;;;42.98;30.47
20077;BME280;12348;42.710;23.378;2023-07-13T08:36:07;95339.69;;;41.02;34.16
20077;BME280;12348;42.710;23.378;2023-07-13T08:38:34;95331.28;;;41.82;33.57
20077;BME280;12348;42.710;23.378;2023-07-13T08:41:10;95331.81;;;41.36;32.32
20077;BME280;12348;42.710;23.378;2023-07-13T08:43:42;95328.91;;;41.45;32.79
20077;BME280;12348;42.710;23.378;2023-07-13T08:46:15;95325.41;;;40.19;34.31
20077;BME280;12348;42.710;23.378;2023-07-13T08:48:46;95327.66;;;38.56;36.75
20077;BME280;12348;42.710;23.378;2023-07-13T08:51:23;95328.47;;;38.85;36.77
20077;BME280;12348;42.710;23.378;2023-07-13T08:53:54;95331.66;;;39.90;35.08
20077;BME280;12348;42.710;23.378;2023-07-13T08:56:25;95320.31;;;41.10;33.34
20077;BME280;12348;42.710;23.378;2023-07-13T08:58:57;95336.03;;;42.41;31.80
20077;BME280;12348;42.710;23.378;2023-07-13T09:01:31;95341.75;;;41.91;31.58
20077;BME280;12348;42.710;23.378;2023-07-13T09:04:05;95342.19;;;40.13;34.33
20077;BME280;12348;42.710;23.378;2023-07-13T09:06:42;95348.50;;;41.63;33.00
20077;BME280;12348;42.710;23.378;2023-07-13T09:09:22;95356.50;;;42.91;32.28
20077;BME280;12348;42.710;23.378;2023-07-13T09:11:58;95359.19;;;42.80;32.49
20077;BME280;12348;42.710;23.378;2023-07-13T09:14:41;95360.09;;;43.59;31.86
20077;BME280;12348;42.710;23.378;2023-07-13T09:17:16;95350.19;;;44.66;31.43
20077;BME280;12348;42.710;23.378;2023-07-13T09:19:44;95350.41;;;44.08;31.79
20077;BME280;12348;42.710;23.378;2023-07-13T09:22:15;95351.44;;;44.11;31.74
20077;BME280;12348;42.710;23.378;2023-07-13T09:24:50;95349.38;;;43.79;32.37
20077;BME280;12348;42.710;23.378;2023-07-13T09:27:22;95352.34;;;43.07;34.24
20077;BME280;12348;42.710;23.378;2023-07-13T09:29:55;95356.44;;;42.85;34.18
20077;BME280;12348;42.710;23.378;2023-07-13T09:32:26;95353.50;;;43.00;33.54
20077;BME280;12348;42.710;23.378;2023-07-13T09:34:54;95342.84;;;43.68;33.13
20077;BME280;12348;42.710;23.378;2023-07-13T09:37:23;95340.53;;;43.66;31.52
20077;BME280;12348;42.710;23.378;2023-07-13T09:39:54;95342.94;;;43.01;31.54
20077;BME280;12348;42.710;23.378;2023-07-13T09:42:22;95343.88;;;43.13;31.48
20077;BME280;12348;42.710;23.378;2023-07-13T09:44:53;95337.84;;;41.88;34.00
20077;BME280;12348;42.710;23.378;2023-07-13T09:47:22;95324.88;;;41.37;36.13
20077;BME280;12348;42.710;23.378;2023-07-13T09:49:56;95324.59;;;41.79;35.74
20077;BME280;12348;42.710;23.378;2023-07-13T09:52:25;95314.56;;;41.49;34.59
20077;BME280;12348;42.710;23.378;2023-07-13T09:54:54;95317.56;;;42.25;33.85
20077;BME280;12348;42.710;23.378;2023-07-13T09:57:26;95318.91;;;43.17;33.00
20077;BME280;12348;42.710;23.378;2023-07-13T09:59:55;95311.69;;;44.11;30.60
20077;BME280;12348;42.710;23.378;2023-07-13T10:02:27;95306.53;;;43.46;31.35
20077;BME280;12348;42.710;23.378;2023-07-13T10:05:02;95308.66;;;41.82;33.32
20077;BME280;12348;42.710;23.378;2023-07-13T10:07:30;95298.03;;;43.14;32.96
20077;BME280;12348;42.710;23.378;2023-07-13T10:09:59;95299.69;;;43.06;33.85
20077;BME280;12348;42.710;23.378;2023-07-13T10:12:29;95296.00;;;42.12;35.41
20077;BME280;12348;42.710;23.378;2023-07-13T10:14:58;95295.25;;;41.97;35.16
20077;BME280;12348;42.710;23.378;2023-07-13T10:17:29;95289.81;;;42.70;34.31
20077;BME280;12348;42.710;23.378;2023-07-13T10:20:00;95289.75;;;43.42;31.74
20077;BME280;12348;42.710;23.378;2023-07-13T10:22:36;95295.38;;;43.37;30.69
20077;BME280;12348;42.710;23.378;2023-07-13T10:25:14;95285.34;;;43.73;29.35
20077;BME280;12348;42.710;23.378;2023-07-13T10:27:41;95282.72;;;43.64;31.17
20077;BME280;12348;42.710;23.378;2023-07-13T10:30:13;95283.66;;;43.49;32.24
20077;BME280;12348;42.710;23.378;2023-07-13T10:32:42;95274.38;;;42.50;34.18
20077;BME280;12348;42.710;23.378;2023-07-13T10:35:12;95275.53;;;42.03;34.93
20077;BME280;12348;42.710;23.378;2023-07-13T10:37:44;95274.47;;;42.35;33.84
20077;BME280;12348;42.710;23.378;2023-07-13T10:40:17;95275.53;;;42.64;34.14
20077;BME280;12348;42.710;23.378;2023-07-13T10:42:48;95272.66;;;42.38;34.10
20077;BME280;12348;42.710;23.378;2023-07-13T10:45:19;95262.88;;;42.59;33.79
20077;BME280;12348;42.710;23.378;2023-07-13T10:47:47;95257.72;;;42.58;33.46
20077;BME280;12348;42.710;23.378;2023-07-13T10:50:19;95248.38;;;42.31;32.94
20077;BME280;12348;42.710;23.378;2023-07-13T10:52:49;95243.97;;;40.27;36.98
20077;BME280;12348;42.710;23.378;2023-07-13T10:55:33;95243.16;;;39.45;31.28
20077;BME280;12348;42.710;23.378;2023-07-13T10:58:02;95237.53;;;38.75;31.27
20077;BME280;12348;42.710;23.378;2023-07-13T11:00:33;95239.03;;;39.88;30.97
20077;BME280;12348;42.710;23.378;2023-07-13T11:03:13;95238.03;;;39.34;29.63
20077;BME280;12348;42.710;23.378;2023-07-13T11:05:43;95237.47;;;39.12;29.30
20077;BME280;12348;42.710;23.378;2023-07-13T11:08:16;95234.63;;;39.63;27.98
20077;BME280;12348;42.710;23.378;2023-07-13T11:10:49;95233.50;;;39.94;27.92
20077;BME280;12348;42.710;23.378;2023-07-13T11:13:36;95220.78;;;39.74;28.59
20077;BME280;12348;42.710;23.378;2023-07-13T11:16:12;95219.91;;;39.26;29.06
20077;BME280;12348;42.710;23.378;2023-07-13T11:18:39;95222.50;;;38.87;28.78
20077;BME280;12348;42.710;23.378;2023-07-13T11:21:19;95225.22;;;38.63;28.91
20077;BME280;12348;42.710;23.378;2023-07-13T11:24:00;95214.53;;;38.76;29.80
20077;BME280;12348;42.710;23.378;2023-07-13T11:26:41;95206.88;;;38.77;29.34
20077;BME280;12348;42.710;23.378;2023-07-13T11:29:25;95202.22;;;39.16;29.53
20077;BME280;12348;42.710;23.378;2023-07-13T11:31:54;95211.47;;;38.28;30.21
20077;BME280;12348;42.710;23.378;2023-07-13T11:34:25;95201.69;;;38.94;29.68
20077;BME280;12348;42.710;23.378;2023-07-13T11:36:56;95201.22;;;38.95;29.47
20077;BME280;12348;42.710;23.378;2023-07-13T11:39:29;95202.34;;;38.89;29.63
20077;BME280;12348;42.710;23.378;2023-07-13T11:42:00;95194.81;;;38.76;30.81
20077;BME280;12348;42.710;23.378;2023-07-13T11:44:28;95193.31;;;38.20;31.45
20077;BME280;12348;42.710;23.378;2023-07-13T11:46:58;95188.97;;;38.38;31.70
20077;BME280;12348;42.710;23.378;2023-07-13T11:49:30;95186.44;;;38.49;30.80
20077;BME280;12348;42.710;23.378;2023-07-13T11:51:59;95181.13;;;38.42;30.89
20077;BME280;12348;42.710;23.378;2023-07-13T11:54:29;95183.03;;;38.36;30.71
20077;BME280;12348;42.710;23.378;2023-07-13T11:56:58;95184.56;;;38.18;32.13
20077;BME280;12348;42.710;23.378;2023-07-13T11:59:27;95175.19;;;37.94;31.64
20077;BME280;12348;42.710;23.378;2023-07-13T12:01:56;95174.22;;;37.78;31.74
20077;BME280;12348;42.710;23.378;2023-07-13T12:04:26;95173.00;;;37.89;32.42
20077;BME280;12348;42.710;23.378;2023-07-13T12:07:06;95163.59;;;37.82;32.62
20077;BME280;12348;42.710;23.378;2023-07-13T12:09:34;95159.75;;;37.98;32.98
20077;BME280;12348;42.710;23.378;2023-07-13T12:12:02;95163.72;;;37.60;33.57
20077;BME280;12348;42.710;23.378;2023-07-13T12:14:33;95156.41;;;37.54;33.90
20077;BME280;12348;42.710;23.378;2023-07-13T12:17:00;95162.34;;;37.65;33.23
20077;BME280;12348;42.710;23.378;2023-07-13T12:19:28;95142.00;;;37.52;35.00
20077;BME280;12348;42.710;23.378;2023-07-13T12:21:57;95141.09;;;37.82;33.55
20077;BME280;12348;42.710;23.378;2023-07-13T12:24:26;95137.38;;;38.04;33.54
20077;BME280;12348;42.710;23.378;2023-07-13T12:26:58;95136.59;;;38.13;33.95
20077;BME280;12348;42.710;23.378;2023-07-13T12:29:26;95133.31;;;37.96;34.11
20077;BME280;12348;42.710;23.378;2023-07-13T12:31:53;95129.72;;;38.04;33.98
20077;BME280;12348;42.710;23.378;2023-07-13T12:34:23;95119.22;;;37.68;35.50
20077;BME280;12348;42.710;23.378;2023-07-13T12:36:52;95116.75;;;37.70;34.93
20077;BME280;12348;42.710;23.378;2023-07-13T12:39:21;95118.28;;;37.71;34.14
20077;BME280;12348;42.710;23.378;2023-07-13T12:41:51;95117.22;;;37.78;32.26
20077;BME280;12348;42.710;23.378;2023-07-13T12:44:22;95120.03;;;37.87;33.31
20077;BME280;12348;42.710;23.378;2023-07-13T12:46:53;95105.19;;;37.59;32.07
20077;BME280;12348;42.710;23.378;2023-07-13T12:49:24;95113.13;;;37.60;32.65
20077;BME280;12348;42.710;23.378;2023-07-13T12:51:56;95111.41;;;37.63;33.29
20077;BME280;12348;42.710;23.378;2023-07-13T12:54:24;95112.84;;;37.77;33.76
20077;BME280;12348;42.710;23.378;2023-07-13T12:56:54;95100.78;;;37.49;34.60